TimeMST,TemperatureF,Dew PointF,Humidity,Sea Level PressureIn,VisibilityMPH,Wind Direction,Wind SpeedMPH,Gust SpeedMPH,PrecipitationIn,Events,Conditions,WindDirDegrees,DateUTC
12:53 AM,-11.0,-18.9,68,30.22,10.0,West,5.8,-,N/A,,Clear,260,2014-02-07 07:53:00
1:53 AM,-14.1,-20.9,71,30.21,10.0,West,5.8,-,N/A,,Clear,280,2014-02-07 08:53:00
2:53 AM,-14.1,-20.9,71,30.19,10.0,WNW,5.8,-,N/A,,Clear,290,2014-02-07 09:53:00
3:53 AM,-15.0,-22.0,71,30.18,10.0,WSW,5.8,-,N/A,,Clear,250,2014-02-07 10:53:00
4:53 AM,-18.9,-24.0,78,30.19,10.0,West,3.5,-,N/A,,Clear,270,2014-02-07 11:53:00
5:53 AM,-17.0,-23.1,74,30.17,10.0,West,4.6,-,N/A,,Clear,280,2014-02-07 12:53:00
6:53 AM,-20.0,-26.0,74,30.17,10.0,West,4.6,-,N/A,,Clear,260,2014-02-07 13:53:00
7:53 AM,-15.0,-22.0,71,30.16,10.0,NW,6.9,-,N/A,,Clear,310,2014-02-07 14:53:00
8:53 AM,-8.0,-16.1,68,30.16,10.0,West,3.5,-,N/A,,Clear,260,2014-02-07 15:53:00
9:53 AM,-2.0,-14.1,57,30.13,10.0,SW,5.8,-,N/A,,Clear,230,2014-02-07 16:53:00
10:53 AM,-0.0,-11.0,60,30.13,10.0,WSW,3.5,-,N/A,,Clear,240,2014-02-07 17:53:00
11:53 AM,3.9,-9.0,55,30.09,10.0,SW,4.6,-,N/A,,Clear,220,2014-02-07 18:53:00
12:53 PM,7.0,-7.1,53,30.06,10.0,SSW,6.9,-,N/A,,Clear,210,2014-02-07 19:53:00
1:53 PM,9.0,-5.1,53,30.04,10.0,South,6.9,-,N/A,,Clear,190,2014-02-07 20:53:00
2:53 PM,10.0,-4.0,53,30.03,10.0,South,3.5,-,N/A,,Clear,170,2014-02-07 21:53:00
3:53 PM,9.0,-4.0,56,30.03,10.0,SE,5.8,-,N/A,,Clear,140,2014-02-07 22:53:00
4:53 PM,7.0,-5.1,58,30.06,10.0,SSE,3.5,-,N/A,,Clear,150,2014-02-07 23:53:00
5:53 PM,-2.0,-9.0,72,30.09,10.0,Calm,Calm,-,N/A,,Clear,0,2014-02-08 00:53:00
6:53 PM,-2.9,-9.0,75,30.09,10.0,Calm,Calm,-,N/A,,Clear,0,2014-02-08 01:53:00
7:53 PM,-0.0,-7.1,72,30.07,10.0,Calm,Calm,-,N/A,,Mostly Cloudy,0,2014-02-08 02:53:00
8:53 PM,-0.0,-7.1,72,30.07,10.0,Calm,Calm,-,N/A,,Partly Cloudy,0,2014-02-08 03:53:00
9:53 PM,1.0,-7.1,69,30.04,10.0,Calm,Calm,-,N/A,,Mostly Cloudy,0,2014-02-08 04:53:00
10:53 PM,-4.0,-9.9,76,30.06,10.0,Calm,Calm,-,N/A,,Scattered Clouds,0,2014-02-08 05:53:00
11:53 PM,-5.1,-11.0,76,30.05,10.0,NNW,3.5,-,N/A,,Partly Cloudy,330,2014-02-08 06:53:00